Track Елизаров Даниил

Time Latitude Longitude Accuracy (66% radius in meters) Altitude (meters) Speed (km/hour) Bearing (degrees) Battery (%) GPS flag
10:06:18 60.253263 29.795880 0 83.9 0.5883275270462 136.36999511719 1 delete
10:06:00 60.253343 29.795792 0 84.6 0.43288138508797 325.10998535156 1 delete
10:05:19 60.253273 29.795940 0 84.7 0.12765111029148 240.77000427246 1 delete
10:04:54 60.253210 29.796088 0 83 0.51832526922226 23.629999160767 1 delete
10:04:49 60.253132 29.796187 0 82.4 1.3815144300461 124.44999694824 1 delete
10:04:37 60.253213 29.796088 0 81.9 0.81840831041336 168.22999572754 1 delete
10:03:09 60.253263 29.795933 0 81.6 0.29853889346123 316.42999267578 1 delete
10:02:47 60.253152 29.795940 0 80.5 0.46479415893555 311.17001342773 1 delete
10:01:59 60.253195 29.795777 0 84.1 0.52038419246674 248.85000610352 1 delete
10:01:04 60.253220 29.795953 0 76.3 0.22390416264534 335.89001464844 1 delete
10:00:18 60.253160 29.796108 0 72 0.61046057939529 201.33999633789 1 delete
09:59:58 60.253238 29.796005 0 71.3 0.45552915334702 36.450000762939 1 delete
09:59:00 60.253170 29.795858 0 71.9 0.26508194208145 175.82000732422 1 delete
09:58:40 60.253232 29.795990 0 72.3 0.54817914962769 84.98999786377 1 delete
09:58:23 60.253320 29.795898 0 73 0.80965805053711 12.409999847412 1 delete
09:57:46 60.253230 29.795798 0 70.1 0.16779944300652 13.189999580383 1 delete
09:52:30 60.253148 29.795877 0 75.3 0.27177333831787 157.96000671387 1 delete
09:51:23 60.253223 29.795770 0 76.2 0.45192611217499 338.82000732422 1 delete
09:49:33 60.253157 29.795902 0 77.1 0.12713639438152 345.10998535156 1 delete
09:49:02 60.253235 29.795995 0 78.3 0.14515165984631 296 1 delete
09:48:00 60.253242 29.796177 0 82 2.6801586151123 282.45999145508 1 delete
09:47:57 60.253232 29.796418 0 83.4 4.7246351242065 266.2200012207 1 delete
09:47:55 60.253248 29.796618 0 82.8 4.9330978393555 262.7799987793 1 delete
09:47:52 60.253250 29.796880 0 82.2 4.1568965911865 275.7799987793 1 delete
09:47:49 60.253232 29.797060 0 82.6 1.9049869775772 298.7200012207 1 delete
09:47:46 60.253200 29.797272 0 83.9 5.4426727294922 273.36999511719 1 delete
09:47:43 60.253172 29.797528 0 83.7 4.8903756141663 274.35998535156 1 delete
09:47:40 60.253162 29.797813 0 82.5 5.2218570709229 318.33999633789 1 delete
09:47:37 60.253068 29.797995 0 83.6 5.2002387046814 309.29998779297 1 delete
09:47:35 60.253008 29.798148 0 83.5 4.9881730079651 301.57000732422 1 delete
09:47:33 60.252955 29.798337 0 82.2 4.5650715827942 303.29998779297 1 delete
09:47:30 60.252945 29.798560 0 80.7 5.4462757110596 228.75999450684 1 delete
09:47:28 60.253013 29.798690 0 79 4.6433091163635 229.61999511719 1 delete
09:47:26 60.253070 29.798858 0 78 5.3798766136169 262.20999145508 1 delete
09:47:24 60.253070 29.799063 0 77.2 5.8482737541199 276.10998535156 1 delete
09:47:22 60.253058 29.799263 0 75.4 5.5806183815002 286.07998657227 1 delete
09:47:20 60.253018 29.799483 0 74.2 5.6382670402527 282.89999389648 1 delete
09:47:18 60.252993 29.799708 0 73.5 6.1679162979126 281.95999145508 1 delete
09:47:16 60.252967 29.799937 0 73.6 5.0149388313293 274.88000488281 1 delete
09:47:13 60.252952 29.800187 0 73.6 4.1661615371704 273.11999511719 1 delete
09:47:10 60.252900 29.800383 0 73 4.7843432426453 346.08999633789 1 delete
09:47:07 60.252795 29.800473 0 71.3 4.9938349723816 339.67999267578 1 delete
09:47:04 60.252680 29.800598 0 71.4 4.9032440185547 313.79000854492 1 delete
09:47:02 60.252607 29.800745 0 72.3 6.0387210845947 310.2799987793 1 delete
09:47:00 60.252522 29.800937 0 72.8 5.1791348457336 309.11999511719 1 delete
09:46:57 60.252423 29.801130 0 73.2 4.8533158302307 314.85000610352 1 delete
09:46:55 60.252372 29.801300 0 76.1 4.6155142784119 308.51000976562 1 delete
09:46:52 60.252318 29.801517 0 75.7 3.8043119907379 293.17999267578 1 delete
09:46:48 60.252340 29.801727 0 73.9 2.1813926696777 224.64999389648 1 delete
09:46:43 60.252362 29.801910 0 76.4 5.6223106384277 310.2799987793 1 delete